Terminal Aerodrome Forecast
Issued by NWS

Home | Current Version | Previous Version | Graphics & Text | Print | Product List | Glossary On
Versions: 1 2 3 4 5 6 7 8 9 10 11 12 13 14 15 16 17 18 19 20
000
FTUS43 KBIS 062320
TAFDIK
TAF
KDIK 062320Z 0700/0724 VRB05KT 3SM FU SCT050
     FM071500 18012KT 6SM FU SCT050=

USA.gov is the U.S. government's official web portal to all federal, state and local government web resources and services.